sensor_id;sensor_type;location;lat;lon;timestamp;pressure;altitude;pressure_sealevel;temperature;humidity
69574;BME280;62840;52.366;5.980;2023-01-19T00:00:18;99822.69;;;2.00;75.44
69574;BME280;62840;52.366;5.980;2023-01-19T00:02:44;99826.16;;;2.01;75.59
69574;BME280;62840;52.366;5.980;2023-01-19T00:05:10;99831.41;;;2.01;75.54
69574;BME280;62840;52.366;5.980;2023-01-19T00:07:36;99835.91;;;1.99;75.44
69574;BME280;62840;52.366;5.980;2023-01-19T00:10:06;99834.25;;;1.98;75.52
69574;BME280;62840;52.366;5.980;2023-01-19T00:12:33;99827.28;;;1.97;75.65
69574;BME280;62840;52.366;5.980;2023-01-19T00:14:58;99822.97;;;1.96;75.48
69574;BME280;62840;52.366;5.980;2023-01-19T00:17:24;99822.22;;;1.94;75.60
69574;BME280;62840;52.366;5.980;2023-01-19T00:19:50;99823.91;;;1.95;75.58
69574;BME280;62840;52.366;5.980;2023-01-19T00:22:16;99818.63;;;1.95;75.69
69574;BME280;62840;52.366;5.980;2023-01-19T00:24:41;99824.94;;;1.92;75.64
69574;BME280;62840;52.366;5.980;2023-01-19T00:27:10;99826.81;;;1.90;75.53
69574;BME280;62840;52.366;5.980;2023-01-19T00:29:38;99825.16;;;1.89;75.89
69574;BME280;62840;52.366;5.980;2023-01-19T00:32:05;99820.72;;;1.89;75.87
69574;BME280;62840;52.366;5.980;2023-01-19T00:34:30;99819.06;;;1.88;75.85
69574;BME280;62840;52.366;5.980;2023-01-19T00:36:56;99812.09;;;1.87;75.81
69574;BME280;62840;52.366;5.980;2023-01-19T00:39:22;99822.59;;;1.87;76.03
69574;BME280;62840;52.366;5.980;2023-01-19T00:41:48;99809.53;;;1.86;76.05
69574;BME280;62840;52.366;5.980;2023-01-19T00:44:16;99819.22;;;1.85;76.14
69574;BME280;62840;52.366;5.980;2023-01-19T00:46:42;99813.13;;;1.85;76.08
69574;BME280;62840;52.366;5.980;2023-01-19T00:49:08;99813.03;;;1.86;76.01
69574;BME280;62840;52.366;5.980;2023-01-19T00:51:34;99815.66;;;1.86;76.15
69574;BME280;62840;52.366;5.980;2023-01-19T00:54:00;99808.53;;;1.88;76.26
69574;BME280;62840;52.366;5.980;2023-01-19T00:56:25;99812.75;;;1.91;76.33
69574;BME280;62840;52.366;5.980;2023-01-19T00:58:51;99808.31;;;1.91;76.20
69574;BME280;62840;52.366;5.980;2023-01-19T01:01:19;99807.38;;;1.92;76.24
69574;BME280;62840;52.366;5.980;2023-01-19T01:03:45;99819.59;;;1.94;76.37
69574;BME280;62840;52.366;5.980;2023-01-19T01:06:11;99815.09;;;1.96;76.34
69574;BME280;62840;52.366;5.980;2023-01-19T01:08:36;99811.50;;;1.97;76.43
69574;BME280;62840;52.366;5.980;2023-01-19T01:11:02;99827.28;;;1.97;76.35
69574;BME280;62840;52.366;5.980;2023-01-19T01:13:28;99820.13;;;1.99;76.38
69574;BME280;62840;52.366;5.980;2023-01-19T01:15:55;99829.72;;;2.00;76.47
69574;BME280;62840;52.366;5.980;2023-01-19T01:18:23;99822.03;;;1.97;76.29
69574;BME280;62840;52.366;5.980;2023-01-19T01:20:49;99834.78;;;2.03;76.47
69574;BME280;62840;52.366;5.980;2023-01-19T01:23:15;99837.22;;;2.06;76.27
69574;BME280;62840;52.366;5.980;2023-01-19T01:25:41;99828.56;;;2.04;76.42
69574;BME280;62840;52.366;5.980;2023-01-19T01:28:07;99833.84;;;2.04;76.30
69574;BME280;62840;52.366;5.980;2023-01-19T01:30:34;99839.09;;;2.04;76.24
69574;BME280;62840;52.366;5.980;2023-01-19T01:33:01;99835.53;;;2.05;76.28
69574;BME280;62840;52.366;5.980;2023-01-19T01:35:29;99838.91;;;2.07;76.33
69574;BME280;62840;52.366;5.980;2023-01-19T01:37:56;99837.22;;;2.06;76.40
69574;BME280;62840;52.366;5.980;2023-01-19T01:40:22;99839.84;;;2.06;76.20
69574;BME280;62840;52.366;5.980;2023-01-19T01:42:48;99837.22;;;2.06;76.33
69574;BME280;62840;52.366;5.980;2023-01-19T01:45:27;99838.91;;;2.07;76.39
69574;BME280;62840;52.366;5.980;2023-01-19T01:47:56;99842.47;;;2.06;76.45
69574;BME280;62840;52.366;5.980;2023-01-19T01:50:33;99838.09;;;2.06;76.24
69574;BME280;62840;52.366;5.980;2023-01-19T01:53:06;99837.03;;;2.09;76.11
69574;BME280;62840;52.366;5.980;2023-01-19T01:55:41;99836.16;;;2.08;76.44
69574;BME280;62840;52.366;5.980;2023-01-19T01:58:11;99834.50;;;2.07;76.51
69574;BME280;62840;52.366;5.980;2023-01-19T02:00:39;99831.78;;;2.09;76.50
69574;BME280;62840;52.366;5.980;2023-01-19T02:03:06;99831.78;;;2.09;76.37
69574;BME280;62840;52.366;5.980;2023-01-19T02:05:35;99835.34;;;2.08;76.41
69574;BME280;62840;52.366;5.980;2023-01-19T02:08:03;99831.03;;;2.07;76.42
69574;BME280;62840;52.366;5.980;2023-01-19T02:10:34;99835.34;;;2.08;76.49
69574;BME280;62840;52.366;5.980;2023-01-19T02:13:01;99830.06;;;2.08;76.54
69574;BME280;62840;52.366;5.980;2023-01-19T02:15:28;99826.50;;;2.09;76.43
69574;BME280;62840;52.366;5.980;2023-01-19T02:17:53;99830.91;;;2.08;76.63
69574;BME280;62840;52.366;5.980;2023-01-19T02:20:21;99826.50;;;2.09;76.62
69574;BME280;62840;52.366;5.980;2023-01-19T02:22:56;99831.66;;;2.10;76.39
69574;BME280;62840;52.366;5.980;2023-01-19T02:25:29;99833.53;;;2.08;76.02
69574;BME280;62840;52.366;5.980;2023-01-19T02:27:56;99840.78;;;2.05;76.11
69574;BME280;62840;52.366;5.980;2023-01-19T02:30:22;99837.63;;;2.00;76.08
69574;BME280;62840;52.366;5.980;2023-01-19T02:32:48;99837.78;;;1.97;76.26
69574;BME280;62840;52.366;5.980;2023-01-19T02:35:14;99838.75;;;1.96;76.23
69574;BME280;62840;52.366;5.980;2023-01-19T02:37:41;99838.00;;;1.94;76.10
69574;BME280;62840;52.366;5.980;2023-01-19T02:40:11;99852.94;;;1.93;76.05
69574;BME280;62840;52.366;5.980;2023-01-19T02:42:43;99839.88;;;1.91;76.15
69574;BME280;62840;52.366;5.980;2023-01-19T02:45:13;99843.47;;;1.90;76.17
69574;BME280;62840;52.366;5.980;2023-01-19T02:47:45;99847.00;;;1.89;76.23
69574;BME280;62840;52.366;5.980;2023-01-19T02:50:35;99843.47;;;1.90;76.08
69574;BME280;62840;52.366;5.980;2023-01-19T02:53:16;99842.59;;;1.90;76.29
69574;BME280;62840;52.366;5.980;2023-01-19T02:56:20;99843.47;;;1.90;76.11
69574;BME280;62840;52.366;5.980;2023-01-19T02:59:05;99844.38;;;1.89;76.19
69574;BME280;62840;52.366;5.980;2023-01-19T03:01:54;99847.22;;;1.86;76.20
69574;BME280;62840;52.366;5.980;2023-01-19T03:04:43;99856.97;;;1.84;76.13
69574;BME280;62840;52.366;5.980;2023-01-19T03:07:29;99856.22;;;1.82;76.18
69574;BME280;62840;52.366;5.980;2023-01-19T03:10:06;99856.97;;;1.84;76.14
69574;BME280;62840;52.366;5.980;2023-01-19T03:12:44;99847.38;;;1.83;76.37
69574;BME280;62840;52.366;5.980;2023-01-19T03:15:22;99854.34;;;1.84;76.48
69574;BME280;62840;52.366;5.980;2023-01-19T03:17:52;99854.34;;;1.84;76.48
69574;BME280;62840;52.366;5.980;2023-01-19T03:20:22;99850.78;;;1.85;76.25
69574;BME280;62840;52.366;5.980;2023-01-19T03:22:52;99861.28;;;1.85;76.54
69574;BME280;62840;52.366;5.980;2023-01-19T03:25:24;99861.28;;;1.85;76.48
69574;BME280;62840;52.366;5.980;2023-01-19T03:27:53;99856.03;;;1.85;76.46
69574;BME280;62840;52.366;5.980;2023-01-19T03:30:26;99860.44;;;1.85;76.57
69574;BME280;62840;52.366;5.980;2023-01-19T03:33:00;99863.00;;;1.86;76.29
69574;BME280;62840;52.366;5.980;2023-01-19T03:35:34;99855.00;;;1.88;76.42
69574;BME280;62840;52.366;5.980;2023-01-19T03:38:06;99854.16;;;1.87;76.42
69574;BME280;62840;52.366;5.980;2023-01-19T03:40:39;99844.31;;;1.91;76.69
69574;BME280;62840;52.366;5.980;2023-01-19T03:43:07;99846.72;;;1.94;76.65
69574;BME280;62840;52.366;5.980;2023-01-19T03:45:37;99846.63;;;1.96;76.44
69574;BME280;62840;52.366;5.980;2023-01-19T03:48:04;99849.91;;;1.99;76.57
69574;BME280;62840;52.366;5.980;2023-01-19T03:50:31;99848.97;;;2.00;76.30
69574;BME280;62840;52.366;5.980;2023-01-19T03:53:01;99847.09;;;2.02;76.33
69574;BME280;62840;52.366;5.980;2023-01-19T03:55:31;99854.88;;;2.04;76.24
69574;BME280;62840;52.366;5.980;2023-01-19T03:57:57;99868.78;;;2.06;76.26
69574;BME280;62840;52.366;5.980;2023-01-19T04:00:23;99870.47;;;2.07;76.47
69574;BME280;62840;52.366;5.980;2023-01-19T04:02:51;99870.47;;;2.07;76.25
69574;BME280;62840;52.366;5.980;2023-01-19T04:05:17;99875.72;;;2.07;76.38
69574;BME280;62840;52.366;5.980;2023-01-19T04:07:42;99867.72;;;2.08;76.61
69574;BME280;62840;52.366;5.980;2023-01-19T04:10:09;99871.97;;;2.11;76.60
69574;BME280;62840;52.366;5.980;2023-01-19T04:12:35;99876.19;;;2.13;76.48
69574;BME280;62840;52.366;5.980;2023-01-19T04:15:01;99876.06;;;2.15;76.45
69574;BME280;62840;52.366;5.980;2023-01-19T04:17:27;99875.16;;;2.16;76.51
69574;BME280;62840;52.366;5.980;2023-01-19T04:19:55;99882.09;;;2.17;76.38
69574;BME280;62840;52.366;5.980;2023-01-19T04:22:21;99882.09;;;2.17;76.53
69574;BME280;62840;52.366;5.980;2023-01-19T04:24:47;99885.47;;;2.19;76.47
69574;BME280;62840;52.366;5.980;2023-01-19T04:27:13;99882.75;;;2.21;76.61
69574;BME280;62840;52.366;5.980;2023-01-19T04:29:39;99888.00;;;2.21;76.40
69574;BME280;62840;52.366;5.980;2023-01-19T04:32:05;99894.09;;;2.21;76.63
69574;BME280;62840;52.366;5.980;2023-01-19T04:34:31;99907.25;;;2.21;76.53
69574;BME280;62840;52.366;5.980;2023-01-19T04:36:59;99913.28;;;2.23;76.68
69574;BME280;62840;52.366;5.980;2023-01-19T04:39:25;99914.97;;;2.24;76.60
69574;BME280;62840;52.366;5.980;2023-01-19T04:41:51;99911.19;;;2.28;76.66
69574;BME280;62840;52.366;5.980;2023-01-19T04:44:16;99910.06;;;2.32;76.91
69574;BME280;62840;52.366;5.980;2023-01-19T04:46:42;99909.88;;;2.36;76.75
69574;BME280;62840;52.366;5.980;2023-01-19T04:49:08;99904.50;;;2.37;77.04
69574;BME280;62840;52.366;5.980;2023-01-19T04:51:34;99906.84;;;2.42;76.93
69574;BME280;62840;52.366;5.980;2023-01-19T04:54:02;99915.31;;;2.47;76.72
69574;BME280;62840;52.366;5.980;2023-01-19T04:56:28;99916.03;;;2.49;76.80
69574;BME280;62840;52.366;5.980;2023-01-19T04:58:54;99913.22;;;2.52;77.13
69574;BME280;62840;52.366;5.980;2023-01-19T05:01:20;99900.81;;;2.54;77.10
69574;BME280;62840;52.366;5.980;2023-01-19T05:03:45;99903.22;;;2.57;77.34
69574;BME280;62840;52.366;5.980;2023-01-19T05:06:11;99907.56;;;2.58;77.19
69574;BME280;62840;52.366;5.980;2023-01-19T05:08:37;99903.75;;;2.62;77.01
69574;BME280;62840;52.366;5.980;2023-01-19T05:11:05;99905.47;;;2.63;77.10
69574;BME280;62840;52.366;5.980;2023-01-19T05:13:31;99926.31;;;2.66;77.14
69574;BME280;62840;52.366;5.980;2023-01-19T05:15:57;99936.75;;;2.68;76.98
69574;BME280;62840;52.366;5.980;2023-01-19T05:18:22;99943.59;;;2.70;77.14
69574;BME280;62840;52.366;5.980;2023-01-19T05:20:48;99950.53;;;2.71;76.95
69574;BME280;62840;52.366;5.980;2023-01-19T05:23:14;99957.53;;;2.72;77.09
69574;BME280;62840;52.366;5.980;2023-01-19T05:25:41;99957.53;;;2.72;76.95
69574;BME280;62840;52.366;5.980;2023-01-19T05:28:10;99950.38;;;2.74;77.22
69574;BME280;62840;52.366;5.980;2023-01-19T05:30:36;99959.19;;;2.73;77.18
69574;BME280;62840;52.366;5.980;2023-01-19T05:33:04;99975.94;;;2.72;77.09
69574;BME280;62840;52.366;5.980;2023-01-19T05:35:30;99982.13;;;2.71;77.01
69574;BME280;62840;52.366;5.980;2023-01-19T05:37:55;99977.75;;;2.72;77.06
69574;BME280;62840;52.366;5.980;2023-01-19T05:40:21;99976.88;;;2.71;76.83
69574;BME280;62840;52.366;5.980;2023-01-19T05:42:47;99977.09;;;2.68;76.90
69574;BME280;62840;52.366;5.980;2023-01-19T05:45:15;99966.56;;;2.68;77.16
69574;BME280;62840;52.366;5.980;2023-01-19T05:47:41;99977.09;;;2.68;77.21
69574;BME280;62840;52.366;5.980;2023-01-19T05:50:08;99973.69;;;2.66;77.04
69574;BME280;62840;52.366;5.980;2023-01-19T05:52:34;99980.66;;;2.67;76.95
69574;BME280;62840;52.366;5.980;2023-01-19T05:55:00;99982.34;;;2.68;77.18
69574;BME280;62840;52.366;5.980;2023-01-19T05:57:26;99980.47;;;2.70;77.00
69574;BME280;62840;52.366;5.980;2023-01-19T05:59:52;99982.13;;;2.71;76.92
69574;BME280;62840;52.366;5.980;2023-01-19T06:02:20;99989.94;;;2.73;76.89
69574;BME280;62840;52.366;5.980;2023-01-19T06:04:46;99992.66;;;2.71;77.04
69574;BME280;62840;52.366;5.980;2023-01-19T06:07:11;100002.28;;;2.72;76.89
69574;BME280;62840;52.366;5.980;2023-01-19T06:09:37;100003.94;;;2.73;77.16
69574;BME280;62840;52.366;5.980;2023-01-19T06:12:04;100001.31;;;2.73;76.80
69574;BME280;62840;52.366;5.980;2023-01-19T06:14:30;100008.47;;;2.71;77.06
69574;BME280;62840;52.366;5.980;2023-01-19T06:16:56;100010.19;;;2.72;76.92
69574;BME280;62840;52.366;5.980;2023-01-19T06:19:24;100011.84;;;2.73;76.89
69574;BME280;62840;52.366;5.980;2023-01-19T06:21:50;100022.38;;;2.73;76.93
69574;BME280;62840;52.366;5.980;2023-01-19T06:24:16;100013.56;;;2.74;76.91
69574;BME280;62840;52.366;5.980;2023-01-19T06:26:42;100020.72;;;2.72;76.80
69574;BME280;62840;52.366;5.980;2023-01-19T06:29:08;100027.66;;;2.73;77.05
69574;BME280;62840;52.366;5.980;2023-01-19T06:31:34;100021.53;;;2.73;76.84
69574;BME280;62840;52.366;5.980;2023-01-19T06:34:00;100029.34;;;2.74;77.04
69574;BME280;62840;52.366;5.980;2023-01-19T06:36:28;100032.00;;;2.74;77.11
69574;BME280;62840;52.366;5.980;2023-01-19T06:38:54;100037.25;;;2.74;77.02
69574;BME280;62840;52.366;5.980;2023-01-19T06:41:19;100044.19;;;2.75;76.98
69574;BME280;62840;52.366;5.980;2023-01-19T06:43:45;100051.34;;;2.73;77.06
69574;BME280;62840;52.366;5.980;2023-01-19T06:46:11;100054.19;;;2.70;76.97
69574;BME280;62840;52.366;5.980;2023-01-19T06:48:37;100062.84;;;2.72;76.83
69574;BME280;62840;52.366;5.980;2023-01-19T06:51:02;100061.13;;;2.71;77.09
69574;BME280;62840;52.366;5.980;2023-01-19T06:53:31;100073.38;;;2.72;77.02
69574;BME280;62840;52.366;5.980;2023-01-19T06:55:58;100080.41;;;2.72;76.75
69574;BME280;62840;52.366;5.980;2023-01-19T06:58:24;100083.88;;;2.72;76.95
69574;BME280;62840;52.366;5.980;2023-01-19T07:00:49;100085.56;;;2.73;76.75
69574;BME280;62840;52.366;5.980;2023-01-19T07:03:18;100087.28;;;2.74;76.85
69574;BME280;62840;52.366;5.980;2023-01-19T07:05:46;100094.44;;;2.72;76.93
69574;BME280;62840;52.366;5.980;2023-01-19T07:08:15;100102.31;;;2.72;76.71
69574;BME280;62840;52.366;5.980;2023-01-19T07:10:43;100098.84;;;2.72;76.68
69574;BME280;62840;52.366;5.980;2023-01-19T07:13:09;100097.97;;;2.71;76.81
69574;BME280;62840;52.366;5.980;2023-01-19T07:15:35;100102.53;;;2.69;76.75
69574;BME280;62840;52.366;5.980;2023-01-19T07:18:01;100107.88;;;2.68;76.77
69574;BME280;62840;52.366;5.980;2023-01-19T07:20:27;100108.72;;;2.68;76.84
69574;BME280;62840;52.366;5.980;2023-01-19T07:22:55;100113.22;;;2.66;76.71
69574;BME280;62840;52.366;5.980;2023-01-19T07:25:21;100120.19;;;2.67;76.91
69574;BME280;62840;52.366;5.980;2023-01-19T07:27:50;100129.97;;;2.65;76.76
69574;BME280;62840;52.366;5.980;2023-01-19T07:30:16;100127.34;;;2.65;76.68
69574;BME280;62840;52.366;5.980;2023-01-19T07:32:42;100131.66;;;2.66;76.71
69574;BME280;62840;52.366;5.980;2023-01-19T07:35:10;100139.53;;;2.66;76.78
69574;BME280;62840;52.366;5.980;2023-01-19T07:37:36;100140.59;;;2.64;76.75
69574;BME280;62840;52.366;5.980;2023-01-19T07:40:04;100140.66;;;2.62;76.69
69574;BME280;62840;52.366;5.980;2023-01-19T07:42:30;100159.09;;;2.62;76.68
69574;BME280;62840;52.366;5.980;2023-01-19T07:44:59;100154.78;;;2.61;76.81
69574;BME280;62840;52.366;5.980;2023-01-19T07:47:24;100165.41;;;2.60;76.57
69574;BME280;62840;52.366;5.980;2023-01-19T07:49:50;100168.16;;;2.58;76.50
69574;BME280;62840;52.366;5.980;2023-01-19T07:52:16;100179.59;;;2.57;76.59
69574;BME280;62840;52.366;5.980;2023-01-19T07:54:42;100180.53;;;2.56;76.63
69574;BME280;62840;52.366;5.980;2023-01-19T07:57:07;100176.56;;;2.49;76.69
69574;BME280;62840;52.366;5.980;2023-01-19T07:59:33;100187.78;;;2.52;76.51
69574;BME280;62840;52.366;5.980;2023-01-19T08:02:01;100200.16;;;2.50;76.67
69574;BME280;62840;52.366;5.980;2023-01-19T08:04:27;100203.00;;;2.47;76.89
69574;BME280;62840;52.366;5.980;2023-01-19T08:06:57;100206.47;;;2.48;76.71
69574;BME280;62840;52.366;5.980;2023-01-19T08:09:23;100211.72;;;2.48;76.66
69574;BME280;62840;52.366;5.980;2023-01-19T08:11:48;100213.53;;;2.47;76.83
69574;BME280;62840;52.366;5.980;2023-01-19T08:14:14;100213.69;;;2.44;76.72
69574;BME280;62840;52.366;5.980;2023-01-19T08:16:40;100221.56;;;2.44;76.77
69574;BME280;62840;52.366;5.980;2023-01-19T08:19:08;100226.00;;;2.44;76.91
69574;BME280;62840;52.366;5.980;2023-01-19T08:21:34;100234.84;;;2.43;77.05
69574;BME280;62840;52.366;5.980;2023-01-19T08:24:00;100238.25;;;2.45;76.85
69574;BME280;62840;52.366;5.980;2023-01-19T08:26:28;100234.66;;;2.46;76.92
69574;BME280;62840;52.366;5.980;2023-01-19T08:28:56;100242.47;;;2.47;76.99
69574;BME280;62840;52.366;5.980;2023-01-19T08:31:23;100246.72;;;2.50;76.93
69574;BME280;62840;52.366;5.980;2023-01-19T08:33:50;100253.66;;;2.51;76.83
69574;BME280;62840;52.366;5.980;2023-01-19T08:36:19;100248.22;;;2.54;76.87
69574;BME280;62840;52.366;5.980;2023-01-19T08:38:45;100253.50;;;2.54;76.84
69574;BME280;62840;52.366;5.980;2023-01-19T08:41:11;100262.16;;;2.56;76.86
69574;BME280;62840;52.366;5.980;2023-01-19T08:43:38;100259.50;;;2.56;76.90
69574;BME280;62840;52.366;5.980;2023-01-19T08:46:04;100272.47;;;2.59;76.96
69574;BME280;62840;52.366;5.980;2023-01-19T08:48:30;100272.28;;;2.62;77.14
69574;BME280;62840;52.366;5.980;2023-01-19T08:50:56;100267.78;;;2.64;76.99
69574;BME280;62840;52.366;5.980;2023-01-19T08:53:25;100264.22;;;2.65;77.15
69574;BME280;62840;52.366;5.980;2023-01-19T08:55:54;100265.75;;;2.69;77.19
69574;BME280;62840;52.366;5.980;2023-01-19T08:58:21;100262.72;;;2.75;77.22
69574;BME280;62840;52.366;5.980;2023-01-19T09:00:46;100267.84;;;2.79;77.12
69574;BME280;62840;52.366;5.980;2023-01-19T09:03:12;100270.19;;;2.83;77.23
69574;BME280;62840;52.366;5.980;2023-01-19T09:05:38;100276.97;;;2.87;77.01
69574;BME280;62840;52.366;5.980;2023-01-19T09:08:06;100263.88;;;2.86;76.97
69574;BME280;62840;52.366;5.980;2023-01-19T09:10:37;100274.44;;;2.86;76.80
69574;BME280;62840;52.366;5.980;2023-01-19T09:13:05;100304.63;;;2.94;77.35
69574;BME280;62840;52.366;5.980;2023-01-19T09:15:32;100299.19;;;2.97;77.11
69574;BME280;62840;52.366;5.980;2023-01-19T09:17:58;100318.28;;;3.01;77.24
69574;BME280;62840;52.366;5.980;2023-01-19T09:20:24;100324.31;;;3.03;77.55
69574;BME280;62840;52.366;5.980;2023-01-19T09:22:50;100329.41;;;3.06;77.68
69574;BME280;62840;52.366;5.980;2023-01-19T09:25:15;100311.72;;;3.08;77.47
69574;BME280;62840;52.366;5.980;2023-01-19T09:27:44;100294.66;;;3.14;77.48
69574;BME280;62840;52.366;5.980;2023-01-19T09:30:13;100303.16;;;3.19;77.51
69574;BME280;62840;52.366;5.980;2023-01-19T09:32:38;100316.06;;;3.24;77.25
69574;BME280;62840;52.366;5.980;2023-01-19T09:35:05;100313.16;;;3.28;76.92
69574;BME280;62840;52.366;5.980;2023-01-19T09:37:31;100329.59;;;3.32;76.97
69574;BME280;62840;52.366;5.980;2023-01-19T09:39:56;100323.41;;;3.33;77.00
69574;BME280;62840;52.366;5.980;2023-01-19T09:42:28;100324.25;;;3.33;77.15
69574;BME280;62840;52.366;5.980;2023-01-19T09:45:06;100324.16;;;3.35;76.76
69574;BME280;62840;52.366;5.980;2023-01-19T09:47:39;100324.16;;;3.35;76.94
69574;BME280;62840;52.366;5.980;2023-01-19T09:50:11;100325.84;;;3.36;76.84
69574;BME280;62840;52.366;5.980;2023-01-19T09:52:48;100336.38;;;3.36;76.86
69574;BME280;62840;52.366;5.980;2023-01-19T09:55:22;100346.94;;;3.36;76.90
69574;BME280;62840;52.366;5.980;2023-01-19T09:57:50;100341.66;;;3.36;77.04
69574;BME280;62840;52.366;5.980;2023-01-19T10:00:19;100341.66;;;3.36;77.11
69574;BME280;62840;52.366;5.980;2023-01-19T10:02:47;100343.38;;;3.37;76.79
69574;BME280;62840;52.366;5.980;2023-01-19T10:05:25;100338.09;;;3.37;77.00
69574;BME280;62840;52.366;5.980;2023-01-19T10:08:14;100342.34;;;3.40;76.97
69574;BME280;62840;52.366;5.980;2023-01-19T10:10:52;100347.69;;;3.38;76.97
69574;BME280;62840;52.366;5.980;2023-01-19T10:13:30;100347.69;;;3.38;77.19
69574;BME280;62840;52.366;5.980;2023-01-19T10:16:12;100345.03;;;3.38;77.20
69574;BME280;62840;52.366;5.980;2023-01-19T10:18:51;100352.97;;;3.38;77.25
69574;BME280;62840;52.366;5.980;2023-01-19T10:21:25;100354.66;;;3.39;77.38
69574;BME280;62840;52.366;5.980;2023-01-19T10:23:56;100343.16;;;3.40;77.16
69574;BME280;62840;52.366;5.980;2023-01-19T10:26:31;100359.53;;;3.45;77.29
69574;BME280;62840;52.366;5.980;2023-01-19T10:29:01;100359.38;;;3.48;77.14
69574;BME280;62840;52.366;5.980;2023-01-19T10:31:33;100356.75;;;3.48;77.26
69574;BME280;62840;52.366;5.980;2023-01-19T10:34:02;100351.28;;;3.51;77.38
69574;BME280;62840;52.366;5.980;2023-01-19T10:36:33;100351.28;;;3.51;77.33
69574;BME280;62840;52.366;5.980;2023-01-19T10:39:02;100352.78;;;3.55;77.45
69574;BME280;62840;52.366;5.980;2023-01-19T10:41:39;100349.19;;;3.56;77.19
69574;BME280;62840;52.366;5.980;2023-01-19T10:44:07;100361.25;;;3.61;77.23
69574;BME280;62840;52.366;5.980;2023-01-19T10:46:42;100362.84;;;3.63;77.20
69574;BME280;62840;52.366;5.980;2023-01-19T10:49:22;100357.50;;;3.65;77.21
69574;BME280;62840;52.366;5.980;2023-01-19T10:51:51;100360.88;;;3.67;77.40
69574;BME280;62840;52.366;5.980;2023-01-19T10:54:19;100349.28;;;3.69;77.47
69574;BME280;62840;52.366;5.980;2023-01-19T10:56:50;100351.84;;;3.71;77.39
69574;BME280;62840;52.366;5.980;2023-01-19T10:59:30;100357.75;;;3.74;77.44
69574;BME280;62840;52.366;5.980;2023-01-19T11:02:14;100349.75;;;3.76;77.32
69574;BME280;62840;52.366;5.980;2023-01-19T11:04:42;100358.50;;;3.76;77.45
69574;BME280;62840;52.366;5.980;2023-01-19T11:07:13;100357.47;;;3.79;77.64
69574;BME280;62840;52.366;5.980;2023-01-19T11:09:40;100363.50;;;3.81;77.63
69574;BME280;62840;52.366;5.980;2023-01-19T11:12:14;100364.25;;;3.83;77.49
69574;BME280;62840;52.366;5.980;2023-01-19T11:14:42;100363.13;;;3.87;77.20
69574;BME280;62840;52.366;5.980;2023-01-19T11:17:18;100367.34;;;3.90;77.29
69574;BME280;62840;52.366;5.980;2023-01-19T11:19:55;100362.91;;;3.90;77.37
69574;BME280;62840;52.366;5.980;2023-01-19T11:22:27;100372.44;;;3.93;77.24
69574;BME280;62840;52.366;5.980;2023-01-19T11:24:58;100369.72;;;3.94;77.44
69574;BME280;62840;52.366;5.980;2023-01-19T11:27:26;100367.75;;;3.98;77.24
69574;BME280;62840;52.366;5.980;2023-01-19T11:30:00;100372.91;;;3.99;77.30
69574;BME280;62840;52.366;5.980;2023-01-19T11:32:32;100369.31;;;4.00;77.27
69574;BME280;62840;52.366;5.980;2023-01-19T11:34:59;100366.56;;;4.02;77.37
69574;BME280;62840;52.366;5.980;2023-01-19T11:37:28;100366.69;;;4.00;77.35
69574;BME280;62840;52.366;5.980;2023-01-19T11:39:58;100365.56;;;4.05;77.32
69574;BME280;62840;52.366;5.980;2023-01-19T11:42:27;100368.00;;;4.08;77.19
69574;BME280;62840;52.366;5.980;2023-01-19T11:45:00;100371.31;;;4.11;77.24
69574;BME280;62840;52.366;5.980;2023-01-19T11:47:38;100366.75;;;4.13;77.21
69574;BME280;62840;52.366;5.980;2023-01-19T11:50:13;100372.78;;;4.15;77.12
69574;BME280;62840;52.366;5.980;2023-01-19T11:52:50;100369.13;;;4.18;76.98
69574;BME280;62840;52.366;5.980;2023-01-19T11:55:23;100369.66;;;4.23;76.69
69574;BME280;62840;52.366;5.980;2023-01-19T11:57:57;100363.13;;;4.29;76.91
69574;BME280;62840;52.366;5.980;2023-01-19T12:00:25;100373.59;;;4.30;76.95
69574;BME280;62840;52.366;5.980;2023-01-19T12:03:01;100372.63;;;4.31;77.11
69574;BME280;62840;52.366;5.980;2023-01-19T12:05:34;100367.47;;;4.30;76.83
69574;BME280;62840;52.366;5.980;2023-01-19T12:08:11;100376.59;;;4.38;76.91
69574;BME280;62840;52.366;5.980;2023-01-19T12:10:44;100378.81;;;4.45;76.97
69574;BME280;62840;52.366;5.980;2023-01-19T12:13:17;100381.09;;;4.51;76.91
69574;BME280;62840;52.366;5.980;2023-01-19T12:15:47;100373.81;;;4.54;76.84
69574;BME280;62840;52.366;5.980;2023-01-19T12:18:21;100386.72;;;4.59;76.34
69574;BME280;62840;52.366;5.980;2023-01-19T12:20:51;100388.41;;;4.60;76.55
69574;BME280;62840;52.366;5.980;2023-01-19T12:23:28;100378.50;;;4.63;76.50
69574;BME280;62840;52.366;5.980;2023-01-19T12:26:19;100380.19;;;4.64;76.32
69574;BME280;62840;52.366;5.980;2023-01-19T12:28:51;100380.19;;;4.64;76.21
69574;BME280;62840;52.366;5.980;2023-01-19T12:31:23;100382.72;;;4.66;76.26
69574;BME280;62840;52.366;5.980;2023-01-19T12:33:52;100378.50;;;4.63;75.95
69574;BME280;62840;52.366;5.980;2023-01-19T12:36:40;100382.06;;;4.62;75.87
69574;BME280;62840;52.366;5.980;2023-01-19T12:39:15;100377.84;;;4.60;75.57
69574;BME280;62840;52.366;5.980;2023-01-19T12:41:42;100386.72;;;4.59;75.77
69574;BME280;62840;52.366;5.980;2023-01-19T12:44:19;100389.38;;;4.59;75.52
69574;BME280;62840;52.366;5.980;2023-01-19T12:46:57;100386.91;;;4.56;75.64
69574;BME280;62840;52.366;5.980;2023-01-19T12:49:30;100392.00;;;4.59;75.67
69574;BME280;62840;52.366;5.980;2023-01-19T12:52:16;100388.53;;;4.58;75.58
69574;BME280;62840;52.366;5.980;2023-01-19T12:54:53;100390.28;;;4.58;75.56
69574;BME280;62840;52.366;5.980;2023-01-19T12:57:25;100398.13;;;4.59;75.45
69574;BME280;62840;52.366;5.980;2023-01-19T12:59:55;100392.19;;;4.56;75.36
69574;BME280;62840;52.366;5.980;2023-01-19T13:08:24;100396.72;;;4.54;75.21
69574;BME280;62840;52.366;5.980;2023-01-19T13:11:19;100397.28;;;4.59;75.19
69574;BME280;62840;52.366;5.980;2023-01-19T13:17:01;100393.50;;;4.63;75.17
69574;BME280;62840;52.366;5.980;2023-01-19T13:19:52;100397.81;;;4.64;75.18
69574;BME280;62840;52.366;5.980;2023-01-19T13:25:48;100401.13;;;4.68;75.13
69574;BME280;62840;52.366;5.980;2023-01-19T13:28:18;100398.38;;;4.69;75.10